Time;durP1;ratioP1;P1;durP2;ratioP2;P2;SDS_P1;SDS_P2;PMS_P1;PMS_P2;Temp;Humidity;BMP_temperature;BMP_pressure;BME280_temperature;BME280_humidity;BME280_pressure;Samples;Min_cycle;Max_cycle;Signal;HPM_P1;HPM_P2
2020/12/09 00:00:29;;;;;;;72.38;38.45;;;0.40;99.90;;;;;;5095821;28;20512;-66
2020/12/09 00:02:56;;;;;;;82.70;39.42;;;-0.30;99.90;;;;;;5096367;28;20570;-66
2020/12/09 00:05:23;;;;;;;82.25;39.38;;;-0.60;99.90;;;;;;5096941;28;20229;-66
2020/12/09 00:07:50;;;;;;;79.47;39.80;;;-0.60;99.90;;;;;;5094816;28;20210;-65
2020/12/09 00:10:17;;;;;;;80.65;39.83;;;-0.60;99.90;;;;;;5100324;28;20206;-64
2020/12/09 00:12:44;;;;;;;76.80;40.03;;;-0.60;99.90;;;;;;5097459;28;20202;-65
2020/12/09 00:15:11;;;;;;;78.63;38.05;;;-0.60;99.90;;;;;;5097428;28;20202;-65
2020/12/09 00:17:37;;;;;;;85.78;43.55;;;-0.70;99.90;;;;;;5095203;28;20237;-66
2020/12/09 00:20:05;;;;;;;81.15;42.25;;;-0.50;99.90;;;;;;5099791;28;20212;-65
2020/12/09 00:22:34;;;;;;;78.88;41.70;;;-0.20;99.90;;;;;;5091740;28;20282;-65
2020/12/09 00:25:01;;;;;;;81.93;41.03;;;-0.60;99.90;;;;;;5099965;28;20209;-66
2020/12/09 00:27:27;;;;;;;83.35;42.00;;;-0.70;99.90;;;;;;5099770;28;20209;-66
2020/12/09 00:29:54;;;;;;;85.90;43.92;;;-0.70;99.90;;;;;;5099279;28;20232;-65
2020/12/09 00:32:20;;;;;;;100.47;45.38;;;-0.70;99.90;;;;;;5099752;28;20269;-66
2020/12/09 00:34:47;;;;;;;83.22;46.10;;;-0.10;99.90;;;;;;5096655;28;20489;-66
2020/12/09 00:37:14;;;;;;;82.10;41.75;;;-0.70;99.90;;;;;;5094548;28;20456;-66
2020/12/09 00:39:40;;;;;;;79.25;44.97;;;-0.80;99.90;;;;;;5099614;28;20227;-65
2020/12/09 00:42:07;;;;;;;95.30;43.90;;;-0.70;99.90;;;;;;5093265;28;20401;-67
2020/12/09 00:44:33;;;;;;;108.70;50.20;;;-0.70;99.90;;;;;;5098956;28;20202;-68
2020/12/09 00:47:00;;;;;;;89.18;45.05;;;-0.70;99.90;;;;;;5093512;28;20202;-64
2020/12/09 00:49:27;;;;;;;78.55;44.30;;;-0.70;99.90;;;;;;5094730;28;20443;-66
2020/12/09 00:51:54;;;;;;;105.03;47.70;;;-0.60;99.90;;;;;;5091478;28;20207;-67
2020/12/09 00:54:20;;;;;;;87.45;47.50;;;-0.60;99.90;;;;;;5097209;28;20206;-65
2020/12/09 00:56:47;;;;;;;99.30;47.88;;;-0.70;99.90;;;;;;5099141;28;20202;-66
2020/12/09 00:59:14;;;;;;;117.68;54.80;;;-0.20;99.90;;;;;;5093045;28;20222;-66
2020/12/09 01:01:40;;;;;;;101.90;46.33;;;-0.80;99.90;;;;;;5097110;28;20204;-67
2020/12/09 01:04:07;;;;;;;82.57;47.35;;;-0.90;99.90;;;;;;5087629;28;20554;-67
2020/12/09 01:06:34;;;;;;;102.70;47.53;;;-0.70;99.90;;;;;;5088968;28;20209;-67
2020/12/09 01:09:05;;;;;;;102.22;52.95;;;-0.60;99.90;;;;;;5096702;28;20232;-66
2020/12/09 01:11:32;;;;;;;105.18;49.08;;;-0.60;99.90;;;;;;5092241;28;20206;-66
2020/12/09 01:13:59;;;;;;;73.68;42.45;;;-0.70;99.90;;;;;;5096347;28;20503;-66
2020/12/09 01:16:26;;;;;;;115.82;53.05;;;-0.60;99.90;;;;;;5090377;28;20210;-65
2020/12/09 01:18:52;;;;;;;98.03;51.38;;;-0.60;99.90;;;;;;5095408;28;20549;-66
2020/12/09 01:21:31;;;;;;;94.47;49.58;;;-0.50;99.90;;;;;;5093035;28;20203;-66
2020/12/09 01:23:58;;;;;;;106.22;50.08;;;-0.60;99.90;;;;;;5093763;28;20208;-65
2020/12/09 01:26:26;;;;;;;106.50;52.70;;;-0.60;99.90;;;;;;5097914;28;20194;-65
2020/12/09 01:28:52;;;;;;;99.47;47.08;;;-0.70;99.90;;;;;;5097744;28;20419;-66
2020/12/09 01:31:21;;;;;;;88.45;47.25;;;-0.70;99.90;;;;;;5096495;28;20210;-66
2020/12/09 01:33:48;;;;;;;87.75;44.28;;;-0.50;99.90;;;;;;5090919;28;20419;-66
2020/12/09 01:36:24;;;;;;;107.22;46.95;;;-0.60;99.90;;;;;;5092622;28;20378;-66
2020/12/09 01:38:51;;;;;;;96.25;49.60;;;-0.60;99.90;;;;;;5093284;28;20233;-66
2020/12/09 01:41:23;;;;;;;90.35;48.63;;;0.10;99.90;;;;;;5097425;28;20202;-65
2020/12/09 01:43:51;;;;;;;102.20;50.47;;;-0.60;99.90;;;;;;5095348;28;20198;-65
2020/12/09 01:46:27;;;;;;;90.40;49.67;;;0.10;99.90;;;;;;5090168;28;20238;-67
2020/12/09 01:48:55;;;;;;;91.93;48.78;;;-0.60;99.90;;;;;;5089927;28;20213;-65
2020/12/09 01:51:24;;;;;;;96.32;47.40;;;-0.50;99.90;;;;;;5099001;28;20193;-68
2020/12/09 01:53:53;;;;;;;89.45;44.45;;;0.10;99.90;;;;;;5094096;28;20207;-67
2020/12/09 01:56:20;;;;;;;95.00;49.72;;;-0.40;99.90;;;;;;5093512;28;20477;-66
2020/12/09 01:58:48;;;;;;;96.57;50.70;;;-0.50;99.90;;;;;;5093775;28;20317;-67
2020/12/09 02:01:16;;;;;;;92.50;44.58;;;-0.40;99.90;;;;;;5096491;28;20237;-71
2020/12/09 02:03:43;;;;;;;94.82;46.85;;;-0.40;99.90;;;;;;5092651;28;20207;-66
2020/12/09 02:06:10;;;;;;;84.78;46.42;;;-0.30;99.90;;;;;;5091841;28;20519;-66
2020/12/09 02:08:36;;;;;;;94.95;44.45;;;-0.30;99.90;;;;;;5096228;28;20492;-65
2020/12/09 02:11:04;;;;;;;84.45;44.83;;;-0.30;99.90;;;;;;5098532;28;20214;-68
2020/12/09 02:13:31;;;;;;;86.28;44.22;;;-0.30;99.90;;;;;;5095316;28;20233;-68
2020/12/09 02:15:59;;;;;;;100.00;45.65;;;-0.20;99.90;;;;;;5087840;28;20203;-66
2020/12/09 02:18:26;;;;;;;108.30;46.10;;;-0.10;99.90;;;;;;5091838;28;20238;-66
2020/12/09 02:20:53;;;;;;;100.93;46.28;;;-0.30;99.90;;;;;;5093040;28;20206;-67
2020/12/09 02:23:20;;;;;;;89.80;40.78;;;0.50;99.90;;;;;;5093998;28;20389;-66
2020/12/09 02:25:47;;;;;;;88.18;41.40;;;-0.30;99.90;;;;;;5093848;28;20201;-66
2020/12/09 02:28:14;;;;;;;80.20;42.25;;;0.50;99.90;;;;;;5097922;28;20585;-65
2020/12/09 02:30:40;;;;;;;83.10;40.65;;;-0.10;99.90;;;;;;5092585;28;20226;-66
2020/12/09 02:33:07;;;;;;;79.38;38.15;;;-0.30;99.90;;;;;;5096281;28;20201;-68
2020/12/09 02:35:34;;;;;;;90.07;40.00;;;-0.30;99.90;;;;;;5090949;28;20238;-67
2020/12/09 02:38:02;;;;;;;77.65;39.90;;;-0.30;99.90;;;;;;5092187;28;20214;-67
2020/12/09 02:40:29;;;;;;;74.15;32.30;;;-0.20;99.90;;;;;;5089705;28;20217;-66
2020/12/09 02:42:55;;;;;;;67.78;33.65;;;0.40;99.90;;;;;;5089241;28;20531;-67
2020/12/09 02:45:23;;;;;;;79.32;36.70;;;-0.30;99.90;;;;;;5093528;28;21586;-68
2020/12/09 02:47:50;;;;;;;68.63;32.83;;;-0.30;99.90;;;;;;5092287;28;20205;-67
2020/12/09 02:50:16;;;;;;;64.18;30.65;;;-0.30;99.90;;;;;;5097269;28;20206;-67
2020/12/09 02:52:43;;;;;;;62.30;29.10;;;-0.30;99.90;;;;;;5097883;28;20198;-67
2020/12/09 02:55:09;;;;;;;66.13;32.15;;;-0.10;99.90;;;;;;5093473;28;20517;-72
2020/12/09 02:57:36;;;;;;;77.05;33.03;;;-0.30;99.90;;;;;;5094719;28;20382;-67
2020/12/09 03:00:05;;;;;;;88.50;34.97;;;-0.30;99.90;;;;;;5092618;28;20237;-67
2020/12/09 03:02:31;;;;;;;53.65;26.10;;;-0.30;99.90;;;;;;5091966;28;20239;-67
2020/12/09 03:04:59;;;;;;;73.82;29.23;;;-0.30;99.90;;;;;;5095506;28;20202;-67
2020/12/09 03:07:26;;;;;;;65.32;25.92;;;-0.30;99.90;;;;;;5095193;28;20203;-66
2020/12/09 03:09:52;;;;;;;59.50;27.98;;;-0.30;99.90;;;;;;5098040;28;20210;-66
2020/12/09 03:12:19;;;;;;;66.47;28.38;;;0.10;99.90;;;;;;5095206;28;20256;-67
2020/12/09 03:14:46;;;;;;;55.20;28.20;;;-0.30;99.90;;;;;;5095492;28;20526;-66
2020/12/09 03:17:12;;;;;;;66.25;24.23;;;-0.30;99.90;;;;;;5093318;28;20241;-67
2020/12/09 03:19:39;;;;;;;56.42;25.55;;;-0.20;99.90;;;;;;5090269;28;20226;-67
2020/12/09 03:22:05;;;;;;;80.75;29.40;;;0.00;99.90;;;;;;5090288;28;20210;-66
2020/12/09 03:24:32;;;;;;;65.95;28.42;;;-0.30;99.90;;;;;;5096259;28;20383;-67
2020/12/09 03:26:59;;;;;;;63.15;28.52;;;0.10;99.90;;;;;;5097165;28;20253;-67
2020/12/09 03:29:26;;;;;;;55.22;24.95;;;-0.30;99.90;;;;;;5097464;28;20229;-66
2020/12/09 03:31:53;;;;;;;52.42;24.65;;;-0.30;99.90;;;;;;5098403;28;20256;-66
2020/12/09 03:34:19;;;;;;;70.85;28.13;;;-0.30;99.90;;;;;;5092986;28;20273;-66
2020/12/09 03:36:46;;;;;;;61.65;28.15;;;-0.20;99.90;;;;;;5101157;28;20213;-65
2020/12/09 03:39:14;;;;;;;59.15;25.63;;;-0.10;99.90;;;;;;5098172;28;20221;-66
2020/12/09 03:41:40;;;;;;;67.72;27.60;;;0.70;99.90;;;;;;5090590;28;20209;-65
2020/12/09 03:44:07;;;;;;;58.58;29.73;;;-0.10;99.90;;;;;;5097791;28;20203;-66
2020/12/09 03:46:33;;;;;;;68.20;28.85;;;-0.30;99.90;;;;;;5100438;28;20206;-67
2020/12/09 03:49:00;;;;;;;62.20;29.67;;;0.40;99.90;;;;;;5093685;28;20206;-66
2020/12/09 03:51:27;;;;;;;60.72;26.05;;;0.70;99.90;;;;;;5098507;28;20392;-66
2020/12/09 03:53:53;;;;;;;63.75;25.17;;;-0.20;99.90;;;;;;5096104;28;20495;-66
2020/12/09 03:56:20;;;;;;;43.80;22.23;;;-0.20;99.90;;;;;;5096502;28;20508;-66
2020/12/09 03:58:46;;;;;;;59.65;24.23;;;0.10;99.90;;;;;;5098606;28;20275;-66
2020/12/09 04:01:13;;;;;;;63.60;24.33;;;-0.20;99.90;;;;;;5098140;28;20202;-66
2020/12/09 04:03:39;;;;;;;57.60;27.10;;;-0.10;99.90;;;;;;5099031;28;20213;-66
2020/12/09 04:06:06;;;;;;;65.28;24.73;;;-0.20;99.90;;;;;;5092442;28;20225;-65
2020/12/09 04:08:33;;;;;;;64.80;25.17;;;0.00;99.90;;;;;;5096228;28;20206;-68
2020/12/09 04:11:00;;;;;;;57.60;23.20;;;-0.10;99.90;;;;;;5096074;28;20203;-65
2020/12/09 04:13:26;;;;;;;62.35;24.23;;;-0.10;99.90;;;;;;5097009;28;20206;-67
2020/12/09 04:15:53;;;;;;;47.10;22.00;;;0.00;99.90;;;;;;5100870;28;20378;-67
2020/12/09 04:18:19;;;;;;;47.58;20.92;;;-0.20;99.90;;;;;;5097746;28;20292;-67
2020/12/09 04:20:46;;;;;;;50.17;22.75;;;0.50;99.90;;;;;;5091863;28;20593;-66
2020/12/09 04:23:13;;;;;;;46.80;21.42;;;-0.50;99.90;;;;;;5099878;28;20210;-65
2020/12/09 04:25:39;;;;;;;57.42;23.40;;;-0.10;99.90;;;;;;5100056;28;20512;-67
2020/12/09 04:28:06;;;;;;;63.83;23.23;;;-0.10;99.90;;;;;;5085773;28;20211;-67
2020/12/09 04:30:32;;;;;;;65.40;23.90;;;-0.10;99.90;;;;;;5101853;28;20248;-67
2020/12/09 04:32:59;;;;;;;56.20;22.13;;;0.50;99.90;;;;;;5100347;28;20213;-66
2020/12/09 04:35:25;;;;;;;61.10;26.17;;;0.30;99.90;;;;;;5099147;28;20206;-65
2020/12/09 04:37:55;;;;;;;51.95;22.75;;;0.00;99.90;;;;;;5100346;28;20218;-65
2020/12/09 04:40:26;;;;;;;51.90;24.50;;;0.00;99.90;;;;;;5096126;28;20480;-66
2020/12/09 04:43:03;;;;;;;64.35;22.70;;;0.00;99.90;;;;;;5096274;28;20228;-66
2020/12/09 04:45:31;;;;;;;57.33;23.98;;;0.50;99.90;;;;;;5085021;28;20197;-67
2020/12/09 04:48:13;;;;;;;47.10;20.27;;;0.10;99.90;;;;;;5089971;28;20207;-65
2020/12/09 04:51:20;;;;;;;45.20;22.88;;;0.00;99.90;;;;;;5079321;28;20207;-67
2020/12/09 04:53:56;;;;;;;45.03;18.55;;;0.00;99.90;;;;;;5071683;28;20248;-67
2020/12/09 04:56:36;;;;;;;42.53;19.95;;;0.00;99.90;;;;;;5089003;28;20251;-66
2020/12/09 04:59:16;;;;;;;42.63;18.83;;;0.90;99.90;;;;;;5096896;28;20272;-67
2020/12/09 05:02:03;;;;;;;44.45;19.23;;;0.10;99.90;;;;;;5090589;28;20213;-66
2020/12/09 05:04:32;;;;;;;35.05;18.27;;;0.50;99.90;;;;;;5084705;28;20425;-66
2020/12/09 05:07:05;;;;;;;51.20;19.23;;;0.10;99.90;;;;;;5088395;28;20224;-66
2020/12/09 05:09:43;;;;;;;58.20;21.48;;;0.30;99.90;;;;;;5099050;28;20273;-67
2020/12/09 05:12:17;;;;;;;46.80;19.92;;;0.10;99.90;;;;;;5086268;28;20207;-68
2020/12/09 05:14:48;;;;;;;54.13;19.30;;;0.20;99.90;;;;;;5085482;28;20212;-67
2020/12/09 05:17:20;;;;;;;44.28;17.45;;;0.20;99.90;;;;;;5099160;28;20304;-66
2020/12/09 05:19:48;;;;;;;35.80;16.52;;;0.10;99.90;;;;;;5079113;28;20211;-67
2020/12/09 05:22:22;;;;;;;47.20;18.25;;;0.20;99.90;;;;;;5079761;28;20238;-66
2020/12/09 05:24:49;;;;;;;43.92;19.30;;;0.20;99.90;;;;;;5095337;28;20210;-67
2020/12/09 05:27:16;;;;;;;56.47;20.90;;;0.20;99.90;;;;;;5099086;28;20289;-65
2020/12/09 05:29:49;;;;;;;41.03;17.92;;;0.20;99.90;;;;;;5083325;28;20230;-66
2020/12/09 05:32:17;;;;;;;51.72;23.50;;;0.20;99.90;;;;;;5097151;28;20209;-67
2020/12/09 05:34:44;;;;;;;41.90;21.60;;;0.20;99.90;;;;;;5099491;28;20202;-67
2020/12/09 05:37:12;;;;;;;48.75;24.02;;;0.30;99.90;;;;;;5084116;28;20214;-68
2020/12/09 05:39:55;;;;;;;48.42;22.67;;;0.80;99.90;;;;;;5091828;28;20227;-66
2020/12/09 05:42:23;;;;;;;49.72;19.63;;;0.20;99.90;;;;;;5091077;28;20798;-66
2020/12/09 05:44:51;;;;;;;50.45;19.60;;;0.30;99.90;;;;;;5101197;28;20199;-67
2020/12/09 05:47:20;;;;;;;49.75;24.30;;;0.30;99.90;;;;;;5097787;28;20384;-67
2020/12/09 05:49:47;;;;;;;55.95;22.85;;;0.30;99.90;;;;;;5087839;28;20210;-67
2020/12/09 05:52:19;;;;;;;45.08;23.83;;;0.20;99.90;;;;;;5080863;28;20208;-68
2020/12/09 05:54:53;;;;;;;45.40;22.65;;;0.30;99.90;;;;;;5090102;28;20195;-67
2020/12/09 05:57:24;;;;;;;45.95;20.20;;;0.40;99.90;;;;;;5095299;28;20229;-66
2020/12/09 05:59:52;;;;;;;35.33;22.45;;;0.30;99.90;;;;;;5099119;28;20275;-65
2020/12/09 06:02:23;;;;;;;51.45;29.95;;;0.40;99.90;;;;;;5094972;28;20198;-66
2020/12/09 06:04:50;;;;;;;50.38;24.13;;;0.40;99.90;;;;;;5078827;28;20386;-67
2020/12/09 06:07:19;;;;;;;60.13;28.73;;;0.40;99.90;;;;;;5091683;28;20641;-66
2020/12/09 06:10:04;;;;;;;68.03;25.90;;;0.50;99.90;;;;;;5085344;28;20210;-68
2020/12/09 06:12:48;;;;;;;56.63;29.30;;;0.40;99.90;;;;;;5083193;28;20205;-67
2020/12/09 06:15:16;;;;;;;41.67;20.48;;;0.40;99.90;;;;;;5087040;28;20202;-66
2020/12/09 06:17:43;;;;;;;48.53;23.35;;;0.80;99.90;;;;;;5090841;28;20455;-66
2020/12/09 06:20:10;;;;;;;52.90;24.13;;;0.40;99.90;;;;;;5080144;28;20261;-64
2020/12/09 06:22:37;;;;;;;41.20;22.38;;;0.50;99.90;;;;;;5092340;28;20198;-66
2020/12/09 06:25:05;;;;;;;37.00;19.55;;;0.50;99.90;;;;;;5089760;28;20221;-66
2020/12/09 06:27:37;;;;;;;52.13;22.02;;;0.40;99.90;;;;;;5092641;28;20243;-67
2020/12/09 06:30:07;;;;;;;49.72;23.33;;;0.40;99.90;;;;;;5079051;28;20250;-65
2020/12/09 06:32:46;;;;;;;42.85;22.10;;;1.00;99.90;;;;;;5096668;28;20208;-65
2020/12/09 06:35:18;;;;;;;43.88;21.60;;;0.40;99.90;;;;;;5097981;28;20244;-66
2020/12/09 06:38:09;;;;;;;44.70;20.20;;;0.50;99.90;;;;;;5083507;28;20396;-67
2020/12/09 06:40:37;;;;;;;50.03;20.15;;;0.50;99.90;;;;;;5093626;28;20217;-65
2020/12/09 06:43:07;;;;;;;32.53;18.58;;;0.60;99.90;;;;;;5097736;28;20206;-66
2020/12/09 06:45:41;;;;;;;41.38;20.70;;;0.60;99.90;;;;;;5049240;28;20206;-67
2020/12/09 06:48:15;;;;;;;64.95;26.38;;;0.60;99.90;;;;;;5067608;28;20613;-65
2020/12/09 06:50:43;;;;;;;49.47;21.45;;;0.70;99.90;;;;;;5094995;28;20234;-66
2020/12/09 06:53:21;;;;;;;48.88;20.48;;;0.60;99.90;;;;;;5086983;28;20219;-67
2020/12/09 06:55:50;;;;;;;39.70;20.88;;;0.60;99.90;;;;;;5094546;28;20194;-67
2020/12/09 06:58:27;;;;;;;55.05;19.30;;;0.70;99.90;;;;;;5090420;28;20270;-67
2020/12/09 07:01:07;;;;;;;52.58;22.48;;;0.60;99.90;;;;;;5089812;28;20212;-66
2020/12/09 07:03:37;;;;;;;45.15;22.70;;;0.60;99.90;;;;;;5094292;28;20205;-68
2020/12/09 07:06:30;;;;;;;36.50;18.65;;;0.60;99.90;;;;;;5097052;28;20214;-66
2020/12/09 07:08:57;;;;;;;43.53;22.52;;;0.70;99.90;;;;;;5081814;28;20215;-66
2020/12/09 07:11:24;;;;;;;59.35;22.42;;;0.50;99.90;;;;;;5098050;28;20427;-66
2020/12/09 07:14:00;;;;;;;39.70;19.77;;;0.60;99.90;;;;;;5085465;28;20481;-65
2020/12/09 07:16:30;;;;;;;57.15;26.02;;;0.60;99.90;;;;;;5087017;28;20523;-67
2020/12/09 07:19:01;;;;;;;42.50;22.70;;;0.60;99.90;;;;;;5083326;28;20260;-66
2020/12/09 07:21:29;;;;;;;58.03;23.38;;;0.60;99.90;;;;;;5097955;28;20206;-66
2020/12/09 07:23:59;;;;;;;47.03;23.45;;;0.60;99.90;;;;;;5089768;28;20193;-67
2020/12/09 07:26:26;;;;;;;45.92;21.05;;;0.10;99.90;;;;;;5105615;28;20207;-66
2020/12/09 07:28:53;;;;;;;42.65;20.90;;;0.60;99.90;;;;;;5098862;28;20206;-65
2020/12/09 07:31:19;;;;;;;38.53;21.08;;;0.60;99.90;;;;;;5101055;28;20230;-64
2020/12/09 07:33:46;;;;;;;38.30;19.00;;;0.60;99.90;;;;;;5086395;28;20207;-65
2020/12/09 07:36:13;;;;;;;48.35;20.25;;;0.70;99.90;;;;;;5091616;28;20214;-67
2020/12/09 07:38:45;;;;;;;43.55;21.77;;;0.70;99.90;;;;;;5094625;28;20254;-67
2020/12/09 07:41:12;;;;;;;48.47;24.85;;;0.80;99.90;;;;;;5096338;28;20258;-66
2020/12/09 07:43:40;;;;;;;53.70;26.55;;;0.80;99.90;;;;;;5097551;28;20210;-67
2020/12/09 07:46:07;;;;;;;56.55;24.67;;;0.90;99.90;;;;;;5080434;28;20237;-66
2020/12/09 07:48:33;;;;;;;58.70;25.60;;;0.80;99.90;;;;;;5093493;28;20297;-68
2020/12/09 07:51:00;;;;;;;51.40;24.73;;;0.90;99.90;;;;;;5074346;28;20234;-65
2020/12/09 07:53:28;;;;;;;47.67;23.58;;;0.90;99.90;;;;;;5091049;28;20573;-68
2020/12/09 07:55:59;;;;;;;57.22;27.00;;;0.90;99.90;;;;;;5098718;28;20225;-67
2020/12/09 07:58:25;;;;;;;40.50;25.05;;;0.90;99.90;;;;;;5093763;28;20211;-68
2020/12/09 08:00:52;;;;;;;45.03;23.40;;;1.00;99.90;;;;;;5098172;28;20297;-66
2020/12/09 08:03:19;;;;;;;50.08;21.40;;;1.60;99.90;;;;;;5088184;28;20199;-70
2020/12/09 08:05:47;;;;;;;55.83;24.63;;;0.80;99.90;;;;;;5093658;28;20213;-68
2020/12/09 08:08:15;;;;;;;57.85;23.90;;;0.90;99.90;;;;;;5094473;28;20404;-69
2020/12/09 08:10:44;;;;;;;50.08;21.88;;;0.80;99.90;;;;;;5093779;28;20213;-65
2020/12/09 08:13:20;;;;;;;40.53;21.98;;;0.90;99.90;;;;;;5101233;28;20400;-67
2020/12/09 08:15:59;;;;;;;49.50;23.27;;;0.90;99.90;;;;;;5095410;28;20260;-68
2020/12/09 08:18:26;;;;;;;46.58;23.02;;;1.00;99.90;;;;;;5092388;28;20493;-68
2020/12/09 08:20:54;;;;;;;47.08;22.73;;;1.00;99.90;;;;;;5091224;28;20199;-69
2020/12/09 08:23:36;;;;;;;59.08;23.55;;;1.00;99.90;;;;;;5093246;28;20202;-68
2020/12/09 08:26:03;;;;;;;45.90;24.25;;;1.00;99.90;;;;;;5094540;28;20220;-67
2020/12/09 08:28:33;;;;;;;49.15;22.90;;;1.10;99.90;;;;;;5087717;28;20195;-70
2020/12/09 08:31:15;;;;;;;51.17;24.42;;;0.90;99.90;;;;;;5093361;28;20213;-66
2020/12/09 08:33:42;;;;;;;63.33;24.20;;;1.00;99.90;;;;;;5094082;28;20234;-66
2020/12/09 08:36:14;;;;;;;57.97;22.13;;;1.00;99.90;;;;;;5090446;28;20215;-67
2020/12/09 08:38:56;;;;;;;58.92;27.17;;;0.90;99.90;;;;;;5084950;28;20254;-67
2020/12/09 08:41:26;;;;;;;72.03;29.15;;;1.10;99.90;;;;;;5094577;28;20226;-67
2020/12/09 08:43:59;;;;;;;73.40;29.92;;;1.10;99.90;;;;;;5098012;28;20210;-66
2020/12/09 08:46:28;;;;;;;61.53;30.23;;;1.10;99.90;;;;;;5074907;28;20202;-66
2020/12/09 08:48:58;;;;;;;59.78;26.05;;;1.10;99.90;;;;;;5092634;28;20207;-67
2020/12/09 08:51:28;;;;;;;53.13;27.40;;;1.20;99.90;;;;;;5093894;28;20206;-68
2020/12/09 08:53:56;;;;;;;58.42;29.15;;;1.10;99.90;;;;;;5096602;28;20256;-67
2020/12/09 08:56:29;;;;;;;66.68;26.77;;;1.20;99.90;;;;;;5086160;28;20203;-68
2020/12/09 08:58:56;;;;;;;58.67;26.38;;;1.20;99.90;;;;;;5091343;28;20532;-67
2020/12/09 09:01:23;;;;;;;46.92;24.98;;;1.20;99.90;;;;;;5097074;28;20208;-68
2020/12/09 09:03:58;;;;;;;54.20;26.90;;;1.20;99.90;;;;;;5090801;28;20220;-68
2020/12/09 09:06:25;;;;;;;52.60;25.38;;;1.00;99.90;;;;;;5091585;28;20206;-68
2020/12/09 09:08:52;;;;;;;58.20;27.25;;;1.10;99.90;;;;;;5081518;28;20685;-67
2020/12/09 09:11:23;;;;;;;52.28;24.98;;;1.00;99.90;;;;;;5084688;28;20206;-67
2020/12/09 09:13:51;;;;;;;50.58;24.05;;;1.20;99.90;;;;;;5089831;28;20241;-67
2020/12/09 09:16:18;;;;;;;54.42;23.15;;;1.10;99.90;;;;;;5094257;28;20301;-67
2020/12/09 09:18:45;;;;;;;58.05;23.45;;;1.10;99.90;;;;;;5089292;28;20280;-71
2020/12/09 09:21:12;;;;;;;52.60;23.80;;;1.10;99.90;;;;;;5084830;28;20207;-67
2020/12/09 09:23:39;;;;;;;45.65;22.50;;;1.10;99.90;;;;;;5078631;28;20203;-68
2020/12/09 09:26:12;;;;;;;49.15;22.67;;;1.00;99.90;;;;;;5094061;28;20206;-69
2020/12/09 09:28:39;;;;;;;51.42;22.88;;;1.20;99.90;;;;;;5091965;28;20626;-69
2020/12/09 09:31:07;;;;;;;45.67;22.30;;;1.20;99.90;;;;;;5090927;28;20229;-68
2020/12/09 09:33:33;;;;;;;56.22;23.90;;;1.20;99.90;;;;;;5102472;28;20241;-68
2020/12/09 09:36:01;;;;;;;66.55;28.85;;;1.20;99.90;;;;;;5085452;28;20252;-69
2020/12/09 09:38:28;;;;;;;50.40;22.17;;;1.30;99.90;;;;;;5087987;28;20260;-69
2020/12/09 09:40:54;;;;;;;49.00;25.63;;;2.00;99.90;;;;;;5092558;28;20240;-68
2020/12/09 09:43:21;;;;;;;42.40;23.40;;;1.30;99.90;;;;;;5080452;28;20285;-68
2020/12/09 09:45:49;;;;;;;54.22;26.65;;;1.30;99.90;;;;;;5098544;28;20206;-67
2020/12/09 09:48:16;;;;;;;53.80;24.10;;;1.30;99.90;;;;;;5094494;28;20633;-68
2020/12/09 09:50:42;;;;;;;45.72;24.48;;;1.40;99.90;;;;;;5081428;28;20416;-69
2020/12/09 09:53:09;;;;;;;52.35;24.20;;;1.40;99.90;;;;;;5098659;28;20212;-67
2020/12/09 09:55:36;;;;;;;50.10;24.52;;;1.80;99.90;;;;;;5084620;28;20210;-66
2020/12/09 09:58:03;;;;;;;40.17;19.38;;;1.40;99.90;;;;;;5087807;28;20206;-68
2020/12/09 10:00:30;;;;;;;48.75;26.10;;;1.50;99.90;;;;;;5081921;28;20293;-70
2020/12/09 10:02:57;;;;;;;47.60;23.90;;;1.50;99.90;;;;;;5089728;28;20550;-68
2020/12/09 10:05:26;;;;;;;39.30;23.45;;;1.60;99.90;;;;;;5089936;28;20203;-69
2020/12/09 10:07:53;;;;;;;38.05;19.67;;;1.40;99.90;;;;;;5097686;28;20209;-67
2020/12/09 10:10:20;;;;;;;56.03;23.45;;;1.30;99.90;;;;;;5093577;28;20395;-67
2020/12/09 10:12:47;;;;;;;52.90;24.02;;;1.50;99.90;;;;;;5094809;28;20210;-68
2020/12/09 10:15:13;;;;;;;42.85;23.40;;;1.50;99.90;;;;;;5088048;28;20269;-67
2020/12/09 10:17:48;;;;;;;54.28;23.33;;;1.50;99.90;;;;;;5084052;28;20245;-69
2020/12/09 10:20:16;;;;;;;41.08;19.33;;;1.80;99.90;;;;;;5089608;28;20271;-67
2020/12/09 10:22:43;;;;;;;39.55;21.65;;;1.50;99.90;;;;;;5094457;28;20206;-66
2020/12/09 10:25:10;;;;;;;45.33;19.27;;;1.50;99.90;;;;;;5087399;28;20199;-66
2020/12/09 10:27:37;;;;;;;42.55;19.10;;;1.40;99.90;;;;;;5090161;28;20265;-68
2020/12/09 10:30:05;;;;;;;38.33;20.85;;;1.50;99.90;;;;;;5084901;28;20237;-68
2020/12/09 10:32:31;;;;;;;35.25;18.45;;;1.60;99.90;;;;;;5095426;28;20202;-68
2020/12/09 10:34:58;;;;;;;31.02;17.23;;;1.60;99.90;;;;;;5100548;28;20217;-69
2020/12/09 10:37:25;;;;;;;42.88;22.13;;;1.70;99.90;;;;;;5090907;28;20274;-66
2020/12/09 10:39:55;;;;;;;40.22;19.85;;;1.60;99.90;;;;;;5096971;28;20253;-67
2020/12/09 10:42:22;;;;;;;45.80;24.30;;;2.10;99.90;;;;;;5093202;28;20212;-66
2020/12/09 10:44:50;;;;;;;37.15;22.08;;;1.70;99.90;;;;;;5099770;28;20214;-67
2020/12/09 10:47:17;;;;;;;38.85;18.83;;;1.70;99.90;;;;;;5082611;28;20232;-67
2020/12/09 10:49:44;;;;;;;47.67;24.42;;;1.70;99.90;;;;;;5095043;28;20217;-68
2020/12/09 10:52:13;;;;;;;44.42;20.42;;;1.80;99.90;;;;;;5098816;28;20247;-67
2020/12/09 10:54:40;;;;;;;45.75;23.63;;;1.80;99.90;;;;;;5097333;28;20208;-68
2020/12/09 10:57:13;;;;;;;33.65;18.08;;;1.80;99.90;;;;;;5093916;28;20269;-66
2020/12/09 10:59:41;;;;;;;38.55;21.00;;;1.70;99.90;;;;;;5098736;28;20234;-67
2020/12/09 11:02:08;;;;;;;30.67;19.58;;;1.70;99.90;;;;;;5098653;28;20245;-67
2020/12/09 11:04:34;;;;;;;35.05;19.88;;;1.60;99.90;;;;;;5093393;28;20269;-69
2020/12/09 11:07:11;;;;;;;36.63;21.88;;;1.80;99.90;;;;;;5086131;28;20511;-68
2020/12/09 11:09:40;;;;;;;41.85;25.45;;;1.80;99.90;;;;;;5089601;28;20511;-68
2020/12/09 11:12:07;;;;;;;31.67;20.27;;;1.90;99.90;;;;;;5090297;28;20217;-67
2020/12/09 11:14:34;;;;;;;32.75;20.13;;;1.90;99.90;;;;;;5094626;28;20517;-69
2020/12/09 11:17:02;;;;;;;27.77;17.25;;;2.00;99.90;;;;;;5091113;28;20206;-67
2020/12/09 11:19:34;;;;;;;25.20;17.33;;;2.00;99.90;;;;;;5099257;28;20246;-68
2020/12/09 11:22:01;;;;;;;31.75;20.98;;;2.00;99.90;;;;;;5090970;28;20216;-68
2020/12/09 11:24:28;;;;;;;37.83;21.38;;;2.20;99.90;;;;;;5100041;28;20429;-67
2020/12/09 11:26:55;;;;;;;26.15;19.08;;;2.30;99.90;;;;;;5090350;28;20206;-67
2020/12/09 11:29:22;;;;;;;29.58;17.35;;;2.30;99.90;;;;;;5092894;28;20576;-68
2020/12/09 11:31:52;;;;;;;38.83;19.70;;;2.20;99.90;;;;;;5094293;28;20210;-67
2020/12/09 11:34:21;;;;;;;27.67;14.95;;;2.30;99.90;;;;;;5093509;28;20195;-68
2020/12/09 11:36:48;;;;;;;31.77;17.88;;;2.30;99.90;;;;;;5099254;28;20199;-68
2020/12/09 11:39:16;;;;;;;34.85;17.80;;;2.40;99.90;;;;;;5093517;28;20264;-68
2020/12/09 11:41:42;;;;;;;33.15;20.02;;;2.40;99.90;;;;;;5094605;28;20210;-68
2020/12/09 11:44:09;;;;;;;28.88;15.27;;;2.40;99.90;;;;;;5093180;28;20724;-68
2020/12/09 11:46:35;;;;;;;29.20;19.85;;;2.40;99.90;;;;;;5099270;28;20726;-68
2020/12/09 11:49:02;;;;;;;33.88;18.13;;;2.40;99.90;;;;;;5093500;28;20216;-66
2020/12/09 11:51:29;;;;;;;26.05;17.20;;;2.30;99.90;;;;;;5084304;28;20247;-67
2020/12/09 11:53:55;;;;;;;36.67;23.50;;;2.40;99.90;;;;;;5094641;28;20214;-66
2020/12/09 11:56:25;;;;;;;28.58;18.50;;;2.40;99.90;;;;;;5082852;28;20382;-69
2020/12/09 11:58:52;;;;;;;26.95;15.80;;;2.40;99.90;;;;;;5088286;28;20207;-67
2020/12/09 12:01:22;;;;;;;25.33;14.50;;;2.40;99.90;;;;;;5086419;28;20210;-67
2020/12/09 12:03:49;;;;;;;26.50;16.23;;;2.40;99.90;;;;;;5081304;28;20256;-69
2020/12/09 12:06:22;;;;;;;18.77;11.60;;;2.50;99.90;;;;;;5087296;28;20212;-67
2020/12/09 12:08:53;;;;;;;23.50;17.15;;;2.30;99.90;;;;;;5083590;28;20207;-67
2020/12/09 12:11:22;;;;;;;19.25;13.75;;;2.50;99.90;;;;;;5090822;28;20365;-67
2020/12/09 12:13:50;;;;;;;24.80;14.18;;;2.40;99.90;;;;;;5098283;28;20211;-67
2020/12/09 12:16:23;;;;;;;26.50;15.70;;;2.50;99.90;;;;;;5090779;28;20270;-69
2020/12/09 12:18:53;;;;;;;18.10;12.57;;;2.30;99.90;;;;;;5090046;28;20536;-68
2020/12/09 12:21:23;;;;;;;27.52;16.77;;;2.30;99.90;;;;;;5088267;28;20201;-67
2020/12/09 12:23:50;;;;;;;26.70;16.65;;;2.30;99.90;;;;;;5090450;28;20220;-68
2020/12/09 12:26:18;;;;;;;26.10;14.98;;;2.40;99.90;;;;;;5099349;28;20220;-67
2020/12/09 12:28:45;;;;;;;19.15;13.52;;;2.40;99.90;;;;;;5093078;28;20214;-70
2020/12/09 12:31:14;;;;;;;16.70;13.63;;;2.30;99.90;;;;;;5098416;28;20226;-67
2020/12/09 12:33:41;;;;;;;23.27;16.02;;;2.40;99.90;;;;;;5092002;28;20203;-69
2020/12/09 12:36:08;;;;;;;25.75;12.43;;;2.60;99.90;;;;;;5094033;28;20210;-68
2020/12/09 12:38:35;;;;;;;20.10;13.73;;;2.50;99.90;;;;;;5090748;28;20234;-68
2020/12/09 12:41:04;;;;;;;29.38;18.00;;;2.50;99.90;;;;;;5091455;28;20258;-67